Boise City, Oklahoma
Current Conditions -  °F | °C
As of 6:55 PM on Friday 24 Oct 2014 (Local Time) from KCAO Reporting Station
Clear Clear  
Wind Chill: 70°   Ceiling: Unl
Heat Index: 70°   Visibility: 10mi
Dew Point: 33°   Wind: 10mph
Humidity: 26%   Direction: 170°S
Pressure: 30.16"   Gusts: NA
Location:  36.73°N, 102.51°W
Report Text: KCAO 242355Z AUTO 17009KT 10SM CLR 21/01 A3016 RMK AO2 SLP163 T02110006 10289 20211 53002
Loading
Personal Weather Stations






























Interactive Weather Map
Tropical Storm Tracking
New forecast layout! Learn more

10-Day Weather Forecast

Advertisements
Track Severe Weather on mobile